createdAt,value
2022-11-20T00:00:00.403Z,99837.16
2022-11-20T00:01:02.422Z,99855.00
2022-11-20T00:01:42.456Z,99851.56
2022-11-20T00:02:22.443Z,99851.28
2022-11-20T00:03:02.340Z,99849.44
2022-11-20T00:03:49.373Z,99847.03
2022-11-20T00:04:43.351Z,99848.91
2022-11-20T00:05:37.384Z,99850.00
2022-11-20T00:06:33.409Z,99850.00
2022-11-20T00:07:27.387Z,99851.66
2022-11-20T00:08:21.370Z,99840.59
2022-11-20T00:09:09.379Z,99853.88
2022-11-20T00:09:43.452Z,99852.00
2022-11-20T00:10:30.375Z,99854.16
2022-11-20T00:11:04.452Z,99855.09
2022-11-20T00:11:51.356Z,99849.25
2022-11-20T00:12:25.415Z,99841.81
2022-11-20T00:13:12.385Z,99847.41
2022-11-20T00:13:46.437Z,99835.94
2022-11-20T00:14:33.393Z,99838.53
2022-11-20T00:15:07.376Z,99828.59
2022-11-20T00:15:54.367Z,99831.31
2022-11-20T00:16:31.603Z,99834.66
2022-11-20T00:17:18.318Z,99835.47
2022-11-20T00:17:52.404Z,99838.25
2022-11-20T00:18:41.386Z,99843.81
2022-11-20T00:19:16.421Z,99839.31
2022-11-20T00:19:56.412Z,99840.41
2022-11-20T00:20:37.367Z,99826.78
2022-11-20T00:21:27.372Z,99843.69
2022-11-20T00:22:07.380Z,99842.13
2022-11-20T00:22:47.360Z,99840.13
2022-11-20T00:23:27.361Z,99841.66
2022-11-20T00:24:08.359Z,99825.84
2022-11-20T00:24:49.431Z,99843.91
2022-11-20T00:25:30.342Z,99843.78
2022-11-20T00:26:15.444Z,99841.97
2022-11-20T00:26:56.375Z,99834.22
2022-11-20T00:27:36.719Z,99844.41
2022-11-20T00:28:17.448Z,99835.53
2022-11-20T00:29:01.551Z,99848.41
2022-11-20T00:29:41.346Z,99845.56
2022-11-20T00:30:21.388Z,99854.16
2022-11-20T00:31:09.365Z,99851.34
2022-11-20T00:31:49.445Z,99834.78
2022-11-20T00:32:32.363Z,99845.56
2022-11-20T00:33:13.456Z,99836.50
2022-11-20T00:33:54.345Z,99839.09
2022-11-20T00:34:34.371Z,99848.00
2022-11-20T00:35:15.286Z,99840.09
2022-11-20T00:35:55.385Z,99848.84
2022-11-20T00:36:39.331Z,99821.72
2022-11-20T00:37:19.337Z,99848.41
2022-11-20T00:38:00.317Z,99831.34
2022-11-20T00:38:40.442Z,99840.16
2022-11-20T00:39:20.556Z,99841.03
2022-11-20T00:40:01.399Z,99842.25
2022-11-20T00:40:41.319Z,99846.63
2022-11-20T00:41:23.457Z,99837.38
2022-11-20T00:42:04.335Z,99843.69
2022-11-20T00:42:45.351Z,99845.34
2022-11-20T00:43:25.303Z,99840.25
2022-11-20T00:44:05.475Z,99847.09
2022-11-20T00:44:45.331Z,99825.59
2022-11-20T00:45:25.398Z,99839.59
2022-11-20T00:46:17.342Z,99836.22
2022-11-20T00:46:57.434Z,99837.59
2022-11-20T00:47:38.345Z,99840.97
2022-11-20T00:48:18.413Z,99834.78
2022-11-20T00:48:59.311Z,99840.88
2022-11-20T00:49:39.417Z,99832.91
2022-11-20T00:50:19.276Z,99835.66
2022-11-20T00:51:00.442Z,99834.06
2022-11-20T00:51:40.299Z,99839.81
2022-11-20T00:52:23.415Z,99837.03
2022-11-20T00:53:03.317Z,99836.22
2022-11-20T00:53:43.342Z,99837.88
2022-11-20T00:54:23.299Z,99833.94
2022-11-20T00:55:04.387Z,99837.38
2022-11-20T00:55:44.295Z,99841.91
2022-11-20T00:56:26.300Z,99839.09
2022-11-20T00:57:07.274Z,99840.03
2022-11-20T00:57:47.431Z,99832.22
2022-11-20T00:58:28.350Z,99830.63
2022-11-20T00:59:09.365Z,99841.13
2022-11-20T00:59:49.309Z,99842.84
2022-11-20T01:00:29.526Z,99830.84
2022-11-20T01:01:19.386Z,99836.97
2022-11-20T01:02:13.284Z,99819.88
2022-11-20T01:03:07.314Z,99838.13
2022-11-20T01:03:50.343Z,99836.53
2022-11-20T01:04:31.466Z,99834.22
2022-11-20T01:05:12.315Z,99827.34
2022-11-20T01:05:52.319Z,99842.03
2022-11-20T01:06:40.291Z,99843.81
2022-11-20T01:07:22.386Z,99841.81
2022-11-20T01:08:02.307Z,99834.44
2022-11-20T01:08:43.535Z,99834.66
2022-11-20T01:09:24.402Z,99845.78
2022-11-20T01:10:04.380Z,99847.41
2022-11-20T01:10:44.289Z,99838.81
2022-11-20T01:11:36.389Z,99842.41
2022-11-20T01:12:17.301Z,99835.59
2022-11-20T01:13:15.896Z,99849.41
2022-11-20T01:13:59.260Z,99841.94
2022-11-20T01:14:39.322Z,99826.41
2022-11-20T01:15:13.310Z,99853.38
2022-11-20T01:16:00.301Z,99845.75
2022-11-20T01:16:40.359Z,99850.72
2022-11-20T01:17:27.324Z,99844.69
2022-11-20T01:18:01.316Z,99844.84
2022-11-20T01:18:51.304Z,99843.63
2022-11-20T01:19:29.379Z,99842.47
2022-11-20T01:20:10.303Z,99840.69
2022-11-20T01:20:50.269Z,99832.81
2022-11-20T01:21:35.296Z,99845.34
2022-11-20T01:22:16.354Z,99847.25
2022-11-20T01:22:56.297Z,99848.84
2022-11-20T01:23:41.341Z,99833.78
2022-11-20T01:24:24.252Z,99830.34
2022-11-20T01:25:04.494Z,99834.66
2022-11-20T01:25:45.293Z,99838.94
2022-11-20T01:26:32.392Z,99827.19
2022-11-20T01:27:13.261Z,99831.53
2022-11-20T01:27:53.330Z,99846.38
2022-11-20T01:28:33.280Z,99840.97
2022-11-20T01:29:16.417Z,99848.25
2022-11-20T01:30:00.986Z,99834.78
2022-11-20T01:30:41.427Z,99841.59
2022-11-20T01:31:26.364Z,99833.91
2022-11-20T01:32:06.319Z,99834.78
2022-11-20T01:32:47.269Z,99841.53
2022-11-20T01:33:27.287Z,99834.66
2022-11-20T01:34:11.288Z,99848.56
2022-11-20T01:34:51.290Z,99844.69
2022-11-20T01:35:31.240Z,99846.97
2022-11-20T01:36:15.659Z,99848.97
2022-11-20T01:36:56.290Z,99849.69
2022-11-20T01:37:37.333Z,99853.28
2022-11-20T01:38:17.264Z,99855.19
2022-11-20T01:39:02.412Z,99852.25
2022-11-20T01:39:43.241Z,99842.50
2022-11-20T01:40:23.338Z,99846.50
2022-11-20T01:41:04.244Z,99832.75
2022-11-20T01:42:10.348Z,99847.81
2022-11-20T01:43:31.278Z,99835.66
2022-11-20T01:44:28.316Z,99847.81
2022-11-20T01:46:14.223Z,99859.25
2022-11-20T01:47:18.245Z,99852.84
2022-11-20T01:48:12.234Z,99839.59
2022-11-20T01:49:16.262Z,99853.94
2022-11-20T01:50:31.263Z,99838.34
2022-11-20T01:51:48.260Z,99839.66
2022-11-20T01:53:13.275Z,99839.50
2022-11-20T01:53:47.267Z,99853.56
2022-11-20T01:55:07.194Z,99857.81
2022-11-20T01:56:03.332Z,99830.75
2022-11-20T01:56:53.250Z,99846.09
2022-11-20T01:57:27.259Z,99852.91
2022-11-20T01:58:15.230Z,99845.00
2022-11-20T01:58:56.273Z,99816.94
2022-11-20T01:59:51.239Z,99837.47
2022-11-20T02:00:27.318Z,99850.47
2022-11-20T02:01:14.238Z,99843.75
2022-11-20T02:01:48.491Z,99836.81
2022-11-20T02:02:35.253Z,99831.59
2022-11-20T02:03:30.265Z,99842.78
2022-11-20T02:04:25.252Z,99842.25
2022-11-20T02:05:50.204Z,99839.00
2022-11-20T02:06:59.263Z,99841.00
2022-11-20T02:07:53.204Z,99848.44
2022-11-20T02:08:48.237Z,99830.34
2022-11-20T02:09:43.231Z,99842.78
2022-11-20T02:10:38.243Z,99844.03
2022-11-20T02:11:32.199Z,99853.84
2022-11-20T02:12:44.235Z,99851.66
2022-11-20T02:13:53.246Z,99842.91
2022-11-20T02:14:47.199Z,99854.16
2022-11-20T02:15:41.245Z,99844.56
2022-11-20T02:16:42.216Z,99844.13
2022-11-20T02:17:36.191Z,99844.78
2022-11-20T02:18:33.231Z,99848.66
2022-11-20T02:19:21.463Z,99835.19
2022-11-20T02:20:02.235Z,99838.72
2022-11-20T02:20:43.241Z,99833.66
2022-11-20T02:21:49.297Z,99833.31
2022-11-20T02:22:41.224Z,99845.41
2022-11-20T02:23:47.781Z,99840.88
2022-11-20T02:24:30.283Z,99836.22
2022-11-20T02:25:13.418Z,99828.28
2022-11-20T02:25:55.243Z,99832.06
2022-11-20T02:26:40.394Z,99842.97
2022-11-20T02:27:22.195Z,99839.53
2022-11-20T02:28:02.242Z,99833.72
2022-11-20T02:28:42.200Z,99847.63
2022-11-20T02:29:26.307Z,99841.34
2022-11-20T02:30:15.214Z,99846.28
2022-11-20T02:30:55.292Z,99840.91
2022-11-20T02:31:36.180Z,99842.69
2022-11-20T02:32:39.240Z,99850.16
2022-11-20T02:33:20.164Z,99833.72
2022-11-20T02:34:05.466Z,99848.47
2022-11-20T02:34:46.198Z,99842.47
2022-11-20T02:35:33.249Z,99840.72
2022-11-20T02:36:30.176Z,99845.81
2022-11-20T02:37:24.257Z,99844.38
2022-11-20T02:38:18.244Z,99847.78
2022-11-20T02:39:12.201Z,99850.69
2022-11-20T02:40:07.201Z,99849.59
2022-11-20T02:40:55.746Z,99853.06
2022-11-20T02:41:42.308Z,99847.78
2022-11-20T02:42:29.196Z,99849.47
2022-11-20T02:43:04.608Z,99839.53
2022-11-20T02:43:52.184Z,99850.88
2022-11-20T02:44:26.334Z,99850.06
2022-11-20T02:45:15.175Z,99847.88
2022-11-20T02:45:49.260Z,99850.63
2022-11-20T02:46:29.191Z,99851.19
2022-11-20T02:47:09.403Z,99840.47
2022-11-20T02:47:49.161Z,99847.63
2022-11-20T02:48:43.183Z,99847.50
2022-11-20T02:49:37.151Z,99840.00
2022-11-20T02:50:31.166Z,99850.72
2022-11-20T02:51:25.199Z,99857.72
2022-11-20T02:52:05.191Z,99845.66
2022-11-20T02:52:45.196Z,99834.78
2022-11-20T02:53:26.136Z,99821.03
2022-11-20T02:54:06.220Z,99831.09
2022-11-20T02:54:46.160Z,99843.31
2022-11-20T02:55:26.269Z,99838.09
2022-11-20T02:56:06.139Z,99834.13
2022-11-20T02:56:47.201Z,99839.22
2022-11-20T02:57:27.207Z,99844.19
2022-11-20T02:58:07.180Z,99844.78
2022-11-20T02:58:47.139Z,99832.13
2022-11-20T02:59:27.220Z,99853.47
2022-11-20T03:00:07.134Z,99845.78
2022-11-20T03:00:47.254Z,99850.56
2022-11-20T03:01:27.250Z,99852.00
2022-11-20T03:02:07.289Z,99844.84
2022-11-20T03:02:48.185Z,99854.75
2022-11-20T03:03:28.356Z,99858.56
2022-11-20T03:04:09.166Z,99853.84
2022-11-20T03:04:49.173Z,99848.69
2022-11-20T03:05:29.112Z,99847.84
2022-11-20T03:06:09.179Z,99850.69
2022-11-20T03:06:49.148Z,99850.59
2022-11-20T03:07:29.226Z,99843.06
2022-11-20T03:08:09.204Z,99839.00
2022-11-20T03:08:50.176Z,99848.75
2022-11-20T03:09:30.143Z,99844.56
2022-11-20T03:10:12.189Z,99837.19
2022-11-20T03:10:53.148Z,99849.81
2022-11-20T03:11:34.378Z,99847.28
2022-11-20T03:12:15.116Z,99835.31
2022-11-20T03:12:56.217Z,99844.13
2022-11-20T03:13:37.137Z,99838.56
2022-11-20T03:14:17.168Z,99842.38
2022-11-20T03:14:57.149Z,99829.00
2022-11-20T03:15:37.424Z,99852.13
2022-11-20T03:16:21.123Z,99824.19
2022-11-20T03:17:01.188Z,99831.78
2022-11-20T03:17:41.123Z,99840.47
2022-11-20T03:18:21.184Z,99827.78
2022-11-20T03:19:01.138Z,99838.22
2022-11-20T03:19:41.180Z,99843.94
2022-11-20T03:20:22.132Z,99847.84
2022-11-20T03:21:06.240Z,99835.31
2022-11-20T03:21:47.132Z,99846.44
2022-11-20T03:22:27.160Z,99852.41
2022-11-20T03:23:08.143Z,99841.09
2022-11-20T03:23:49.154Z,99843.41
2022-11-20T03:24:29.141Z,99839.81
2022-11-20T03:25:09.153Z,99832.22
2022-11-20T03:25:49.127Z,99836.66
2022-11-20T03:26:33.204Z,99839.69
2022-11-20T03:27:13.145Z,99826.44
2022-11-20T03:27:53.185Z,99831.88
2022-11-20T03:28:33.116Z,99828.16
2022-11-20T03:29:13.160Z,99813.22
2022-11-20T03:29:53.132Z,99817.38
2022-11-20T03:30:33.435Z,99829.63
2022-11-20T03:31:20.105Z,99814.78
2022-11-20T03:32:00.143Z,99828.09
2022-11-20T03:32:40.104Z,99822.19
2022-11-20T03:33:20.129Z,99819.09
2022-11-20T03:34:00.108Z,99825.53
2022-11-20T03:34:40.183Z,99823.13
2022-11-20T03:35:20.132Z,99813.78
2022-11-20T03:36:00.156Z,99825.84
2022-11-20T03:36:40.115Z,99825.03
2022-11-20T03:37:20.386Z,99822.47
2022-11-20T03:38:00.109Z,99815.56
2022-11-20T03:38:41.140Z,99836.22
2022-11-20T03:39:21.456Z,99832.22
2022-11-20T03:40:02.149Z,99822.84
2022-11-20T03:40:43.155Z,99826.31
2022-11-20T03:41:27.243Z,99835.78
2022-11-20T03:42:07.091Z,99828.56
2022-11-20T03:42:47.212Z,99835.44
2022-11-20T03:43:27.103Z,99828.56
2022-11-20T03:44:10.180Z,99834.84
2022-11-20T03:44:50.103Z,99828.31
2022-11-20T03:45:30.122Z,99840.88
2022-11-20T03:46:11.109Z,99848.81
2022-11-20T03:46:51.204Z,99827.63
2022-11-20T03:47:31.103Z,99835.38
2022-11-20T03:48:25.093Z,99842.34
2022-11-20T03:49:20.359Z,99837.84
2022-11-20T03:50:14.093Z,99840.88
2022-11-20T03:51:28.120Z,99838.28
2022-11-20T03:52:22.066Z,99844.13
2022-11-20T03:53:16.099Z,99843.78
2022-11-20T03:54:13.083Z,99841.69
2022-11-20T03:55:07.087Z,99840.56
2022-11-20T03:56:06.091Z,99847.09
2022-11-20T03:56:53.089Z,99836.78
2022-11-20T03:57:27.365Z,99845.16
2022-11-20T03:58:14.058Z,99843.78
2022-11-20T03:58:48.112Z,99847.81
2022-11-20T03:59:35.107Z,99842.88
2022-11-20T04:00:10.167Z,99847.97
2022-11-20T04:00:57.101Z,99851.56
2022-11-20T04:01:44.197Z,99844.72
2022-11-20T04:02:27.105Z,99849.69
2022-11-20T04:03:09.107Z,99850.81
2022-11-20T04:03:51.077Z,99852.91
2022-11-20T04:04:31.107Z,99855.38
2022-11-20T04:05:12.053Z,99844.31
2022-11-20T04:05:52.147Z,99849.22
2022-11-20T04:06:41.083Z,99861.69
2022-11-20T04:07:21.147Z,99852.25
2022-11-20T04:08:01.108Z,99856.22
2022-11-20T04:08:41.093Z,99852.81
2022-11-20T04:09:22.168Z,99857.25
2022-11-20T04:10:02.105Z,99850.06
2022-11-20T04:10:42.075Z,99848.94
2022-11-20T04:11:26.100Z,99851.50
2022-11-20T04:12:06.048Z,99850.81
2022-11-20T04:12:46.124Z,99857.66
2022-11-20T04:13:26.105Z,99857.19
2022-11-20T04:14:10.134Z,99840.91
2022-11-20T04:14:51.066Z,99857.84
2022-11-20T04:15:34.369Z,99847.97
2022-11-20T04:16:18.038Z,99855.97
2022-11-20T04:16:58.092Z,99851.13
2022-11-20T04:17:38.043Z,99837.78
2022-11-20T04:18:18.102Z,99842.03
2022-11-20T04:19:03.095Z,99855.97
2022-11-20T04:19:43.126Z,99854.72
2022-11-20T04:20:23.083Z,99855.66
2022-11-20T04:21:05.106Z,99842.81
2022-11-20T04:21:45.077Z,99831.91
2022-11-20T04:22:25.124Z,99853.13
2022-11-20T04:23:05.034Z,99858.59
2022-11-20T04:23:45.111Z,99856.88
2022-11-20T04:24:26.072Z,99845.44
2022-11-20T04:25:06.052Z,99856.72
2022-11-20T04:25:46.084Z,99858.31
2022-11-20T04:26:28.218Z,99845.97
2022-11-20T04:27:09.082Z,99847.13
2022-11-20T04:27:50.127Z,99846.78
2022-11-20T04:28:30.065Z,99859.44
2022-11-20T04:29:10.084Z,99851.44
2022-11-20T04:29:50.038Z,99855.69
2022-11-20T04:30:30.105Z,99845.22
2022-11-20T04:31:12.034Z,99850.25
2022-11-20T04:31:52.063Z,99839.41
2022-11-20T04:32:32.036Z,99846.66
2022-11-20T04:33:12.067Z,99836.63
2022-11-20T04:33:53.023Z,99845.91
2022-11-20T04:34:33.113Z,99838.22
2022-11-20T04:35:14.059Z,99842.81
2022-11-20T04:35:55.042Z,99842.72
2022-11-20T04:36:38.056Z,99834.56
2022-11-20T04:37:18.108Z,99853.13
2022-11-20T04:38:02.059Z,99834.50
2022-11-20T04:38:42.283Z,99839.16
2022-11-20T04:39:23.314Z,99829.47
2022-11-20T04:40:05.169Z,99837.88
2022-11-20T04:40:45.063Z,99829.06
2022-11-20T04:41:28.345Z,99839.47
2022-11-20T04:42:27.041Z,99834.94
2022-11-20T04:43:07.072Z,99827.06
2022-11-20T04:43:47.046Z,99838.22
2022-11-20T04:44:27.072Z,99835.28
2022-11-20T04:45:07.040Z,99829.78
2022-11-20T04:45:54.052Z,99837.66
2022-11-20T04:46:53.043Z,99834.56
2022-11-20T04:47:47.044Z,99828.09
2022-11-20T04:48:43.069Z,99842.44
2022-11-20T04:49:39.054Z,99847.66
2022-11-20T04:50:33.014Z,99841.50
2022-11-20T04:51:14.017Z,99828.69
2022-11-20T04:51:54.240Z,99826.78
2022-11-20T04:52:35.035Z,99834.78
2022-11-20T04:53:15.071Z,99840.03
2022-11-20T04:53:56.027Z,99835.50
2022-11-20T04:54:36.059Z,99838.06
2022-11-20T04:55:16.039Z,99827.19
2022-11-20T04:55:56.066Z,99822.47
2022-11-20T04:56:36.005Z,99833.09
2022-11-20T04:57:16.412Z,99832.06
2022-11-20T04:57:59.003Z,99833.50
2022-11-20T04:58:39.080Z,99828.19
2022-11-20T04:59:19.265Z,99796.50
2022-11-20T05:00:00.087Z,99831.00
2022-11-20T05:00:41.041Z,99808.06
2022-11-20T05:01:25.121Z,99831.06
2022-11-20T05:02:06.048Z,99819.75
2022-11-20T05:02:46.032Z,99830.16
2022-11-20T05:03:25.989Z,99817.31
2022-11-20T05:04:06.666Z,99832.81
2022-11-20T05:04:47.034Z,99831.78
2022-11-20T05:05:27.068Z,99816.38
2022-11-20T05:06:13.022Z,99830.84
2022-11-20T05:06:53.072Z,99823.91
2022-11-20T05:07:33.144Z,99827.13
2022-11-20T05:08:13.063Z,99824.47
2022-11-20T05:08:53.020Z,99818.31
2022-11-20T05:09:33.108Z,99815.66
2022-11-20T05:10:13.974Z,99814.59
2022-11-20T05:10:54.044Z,99822.94
2022-11-20T05:11:36.018Z,99818.97
2022-11-20T05:12:17.093Z,99822.91
2022-11-20T05:12:57.027Z,99810.16
2022-11-20T05:13:37.023Z,99810.06
2022-11-20T05:14:16.977Z,99823.31
2022-11-20T05:14:57.031Z,99826.09
2022-11-20T05:15:37.008Z,99824.91
2022-11-20T05:16:26.076Z,99826.63
2022-11-20T05:17:05.969Z,99827.78
2022-11-20T05:17:46.035Z,99829.69
2022-11-20T05:18:26.003Z,99823.47
2022-11-20T05:19:06.083Z,99831.78
2022-11-20T05:19:49.357Z,99824.06
2022-11-20T05:20:32.047Z,99822.38
2022-11-20T05:21:12.989Z,99819.44
2022-11-20T05:21:53.034Z,99821.16
2022-11-20T05:22:33.987Z,99809.84
2022-11-20T05:23:14.059Z,99818.31
2022-11-20T05:23:54.999Z,99816.16
2022-11-20T05:24:35.022Z,99816.06
2022-11-20T05:25:14.983Z,99813.09
2022-11-20T05:25:58.827Z,99819.16
2022-11-20T05:26:38.989Z,99817.00
2022-11-20T05:27:19.033Z,99822.31
2022-11-20T05:27:58.961Z,99820.03
2022-11-20T05:28:40.035Z,99822.19
2022-11-20T05:29:21.309Z,99816.06
2022-11-20T05:30:02.040Z,99810.22
2022-11-20T05:30:42.992Z,99817.44
2022-11-20T05:31:29.067Z,99815.44
2022-11-20T05:32:10.005Z,99822.91
2022-11-20T05:32:50.014Z,99808.13
2022-11-20T05:33:29.975Z,99816.88
2022-11-20T05:34:10.108Z,99816.94
2022-11-20T05:34:50.160Z,99814.16
2022-11-20T05:35:30.992Z,99820.09
2022-11-20T05:36:12.964Z,99795.53
2022-11-20T05:36:53.097Z,99802.09
2022-11-20T05:37:33.954Z,99801.69
2022-11-20T05:38:14.136Z,99813.03
2022-11-20T05:38:59.752Z,99813.16
2022-11-20T05:39:41.007Z,99812.31
2022-11-20T05:40:21.980Z,99808.34
2022-11-20T05:41:02.025Z,99810.56
2022-11-20T05:41:41.939Z,99807.41
2022-11-20T05:42:34.188Z,99809.72
2022-11-20T05:43:15.027Z,99786.75
2022-11-20T05:43:57.044Z,99816.88
2022-11-20T05:44:36.980Z,99813.50
2022-11-20T05:45:17.027Z,99807.56
2022-11-20T05:46:02.059Z,99809.16
2022-11-20T05:46:45.024Z,99806.50
2022-11-20T05:47:27.980Z,99813.16
2022-11-20T05:48:09.045Z,99814.88
2022-11-20T05:48:50.939Z,99802.47
2022-11-20T05:49:30.971Z,99798.09
2022-11-20T05:50:11.961Z,99802.81
2022-11-20T05:50:52.040Z,99808.28
2022-11-20T05:51:33.025Z,99808.69
2022-11-20T05:52:12.976Z,99791.34
2022-11-20T05:52:52.970Z,99799.69
2022-11-20T05:53:34.156Z,99801.25
2022-11-20T05:54:13.953Z,99795.59
2022-11-20T05:54:53.983Z,99802.97
2022-11-20T05:55:34.922Z,99791.72
2022-11-20T05:56:22.227Z,99798.75
2022-11-20T05:57:01.974Z,99803.28
2022-11-20T05:57:43.203Z,99802.91
2022-11-20T05:58:22.946Z,99803.31
2022-11-20T05:59:03.996Z,99802.47
2022-11-20T05:59:44.966Z,99779.31
2022-11-20T06:00:24.966Z,99790.91
2022-11-20T06:01:25.952Z,99809.06
2022-11-20T06:02:13.037Z,99807.41
2022-11-20T06:03:06.936Z,99785.25
2022-11-20T06:04:01.951Z,99799.22
2022-11-20T06:04:55.948Z,99795.34
2022-11-20T06:05:49.933Z,99797.06
2022-11-20T06:06:43.936Z,99785.63
2022-11-20T06:07:30.969Z,99785.44
2022-11-20T06:08:04.970Z,99788.47
2022-11-20T06:08:51.926Z,99799.06
2022-11-20T06:09:25.967Z,99767.91
2022-11-20T06:10:12.944Z,99804.03
2022-11-20T06:10:47.995Z,99799.53
2022-11-20T06:11:34.916Z,99792.78
2022-11-20T06:12:09.043Z,99802.34
2022-11-20T06:12:55.944Z,99786.75
2022-11-20T06:13:29.965Z,99802.66
2022-11-20T06:14:16.899Z,99788.63
2022-11-20T06:14:50.979Z,99787.25
2022-11-20T06:15:37.908Z,99787.72
2022-11-20T06:16:12.018Z,99795.78
2022-11-20T06:16:58.932Z,99773.56
2022-11-20T06:17:32.951Z,99789.84
2022-11-20T06:18:19.940Z,99790.63
2022-11-20T06:18:53.981Z,99770.91
2022-11-20T06:19:40.911Z,99797.81
2022-11-20T06:20:16.009Z,99792.78
2022-11-20T06:21:28.912Z,99786.97
2022-11-20T06:22:02.968Z,99785.16
2022-11-20T06:22:49.955Z,99797.28
2022-11-20T06:23:30.968Z,99795.06
2022-11-20T06:24:25.942Z,99806.63
2022-11-20T06:25:19.927Z,99785.44
2022-11-20T06:26:29.917Z,99805.50
2022-11-20T06:27:23.902Z,99802.66
2022-11-20T06:28:17.878Z,99799.22
2022-11-20T06:29:00.911Z,99789.69
2022-11-20T06:29:40.963Z,99794.63
2022-11-20T06:30:21.922Z,99778.72
2022-11-20T06:31:02.029Z,99797.34
2022-11-20T06:31:42.899Z,99792.41
2022-11-20T06:32:22.961Z,99796.75
2022-11-20T06:33:02.927Z,99811.31
2022-11-20T06:33:42.931Z,99800.94
2022-11-20T06:34:22.913Z,99808.53
2022-11-20T06:35:02.935Z,99804.34
2022-11-20T06:35:42.893Z,99803.28
2022-11-20T06:36:25.225Z,99793.63
2022-11-20T06:37:04.932Z,99791.31
2022-11-20T06:37:44.952Z,99801.06
2022-11-20T06:38:25.883Z,99790.31
2022-11-20T06:39:07.172Z,99789.75
2022-11-20T06:39:46.925Z,99797.81
2022-11-20T06:40:26.966Z,99798.59
2022-11-20T06:41:06.873Z,99807.69
2022-11-20T06:41:46.948Z,99794.41
2022-11-20T06:42:26.904Z,99801.44
2022-11-20T06:43:06.926Z,99790.06
2022-11-20T06:43:47.882Z,99808.53
2022-11-20T06:44:28.035Z,99803.47
2022-11-20T06:45:07.929Z,99798.22
2022-11-20T06:45:47.939Z,99808.25
2022-11-20T06:46:28.894Z,99764.41
2022-11-20T06:47:09.081Z,99803.09
2022-11-20T06:47:49.883Z,99791.94
2022-11-20T06:48:31.923Z,99794.09
2022-11-20T06:49:11.932Z,99796.38
2022-11-20T06:49:51.968Z,99781.41
2022-11-20T06:50:31.962Z,99795.81
2022-11-20T06:51:14.000Z,99781.44
2022-11-20T06:51:53.892Z,99800.31
2022-11-20T06:52:33.909Z,99769.69
2022-11-20T06:53:13.888Z,99777.03
2022-11-20T06:53:53.923Z,99788.19
2022-11-20T06:54:33.879Z,99798.50
2022-11-20T06:55:14.922Z,99785.19
2022-11-20T06:55:55.944Z,99788.78
2022-11-20T06:56:35.991Z,99781.31
2022-11-20T06:57:16.871Z,99791.31
2022-11-20T06:57:57.945Z,99792.06
2022-11-20T06:58:39.882Z,99784.94
2022-11-20T06:59:20.293Z,99801.38
2022-11-20T07:00:00.869Z,99789.00
2022-11-20T07:00:41.210Z,99794.31
2022-11-20T07:01:22.924Z,99765.25
2022-11-20T07:02:03.291Z,99794.50
2022-11-20T07:02:42.888Z,99793.56
2022-11-20T07:03:22.910Z,99791.06
2022-11-20T07:04:02.890Z,99789.41
2022-11-20T07:04:42.920Z,99799.50
2022-11-20T07:05:23.853Z,99794.91
2022-11-20T07:06:05.191Z,99773.25
2022-11-20T07:06:45.890Z,99798.03
2022-11-20T07:07:26.086Z,99787.81
2022-11-20T07:08:06.852Z,99795.47
2022-11-20T07:09:00.891Z,99778.22
2022-11-20T07:09:54.879Z,99799.03
2022-11-20T07:10:49.861Z,99795.94
2022-11-20T07:11:43.881Z,99784.00
2022-11-20T07:12:24.844Z,99784.00
2022-11-20T07:13:04.896Z,99793.47
2022-11-20T07:13:44.861Z,99793.63
2022-11-20T07:14:24.963Z,99790.16
2022-11-20T07:15:04.857Z,99793.06
2022-11-20T07:15:44.941Z,99785.50
2022-11-20T07:16:25.901Z,99793.16
2022-11-20T07:17:05.888Z,99790.47
2022-11-20T07:17:39.918Z,99804.81
2022-11-20T07:18:26.861Z,99786.75
2022-11-20T07:19:00.928Z,99796.19
2022-11-20T07:19:47.824Z,99778.41
2022-11-20T07:20:22.199Z,99786.38
2022-11-20T07:21:10.835Z,99796.94
2022-11-20T07:21:44.953Z,99791.47
2022-11-20T07:22:24.879Z,99778.41
2022-11-20T07:23:05.896Z,99794.38
2022-11-20T07:23:45.854Z,99793.13
2022-11-20T07:24:25.932Z,99792.47
2022-11-20T07:25:05.836Z,99768.94
2022-11-20T07:25:45.878Z,99792.47
2022-11-20T07:26:26.857Z,99790.59
2022-11-20T07:27:06.907Z,99781.69
2022-11-20T07:27:46.878Z,99787.88
2022-11-20T07:28:27.147Z,99790.47
2022-11-20T07:29:06.859Z,99792.47
2022-11-20T07:29:46.876Z,99792.94
2022-11-20T07:30:26.875Z,99793.75
2022-11-20T07:31:07.767Z,99785.94
2022-11-20T07:31:47.834Z,99789.06
2022-11-20T07:32:27.906Z,99768.59
2022-11-20T07:33:07.849Z,99792.66
2022-11-20T07:33:47.925Z,99789.84
2022-11-20T07:34:27.828Z,99794.63
2022-11-20T07:35:07.903Z,99781.41
2022-11-20T07:35:48.823Z,99791.09
2022-11-20T07:36:28.951Z,99772.75
2022-11-20T07:37:10.490Z,99797.91
2022-11-20T07:37:50.884Z,99770.09
2022-11-20T07:38:30.858Z,99786.53
2022-11-20T07:39:10.868Z,99779.84
2022-11-20T07:39:50.833Z,99787.47
2022-11-20T07:40:30.903Z,99778.22
2022-11-20T07:41:10.847Z,99786.81
2022-11-20T07:41:50.912Z,99782.00
2022-11-20T07:42:30.817Z,99780.50
2022-11-20T07:43:10.859Z,99782.22
2022-11-20T07:43:51.862Z,99778.66
2022-11-20T07:44:31.851Z,99773.09
2022-11-20T07:45:12.806Z,99775.28
2022-11-20T07:45:53.017Z,99775.28
2022-11-20T07:46:32.796Z,99774.13
2022-11-20T07:47:13.072Z,99773.56
2022-11-20T07:47:52.829Z,99780.16
2022-11-20T07:48:33.423Z,99779.13
2022-11-20T07:49:13.875Z,99754.03
2022-11-20T07:49:53.902Z,99763.13
2022-11-20T07:50:33.801Z,99771.03
2022-11-20T07:51:14.460Z,99768.28
2022-11-20T07:52:04.202Z,99771.59
2022-11-20T07:52:44.856Z,99753.13
2022-11-20T07:53:27.814Z,99766.19
2022-11-20T07:54:07.867Z,99760.31
2022-11-20T07:54:51.888Z,99770.63
2022-11-20T07:55:31.887Z,99765.78
2022-11-20T07:56:12.818Z,99760.31
2022-11-20T07:56:52.865Z,99756.56
2022-11-20T07:57:33.795Z,99766.50
2022-11-20T07:58:14.818Z,99760.63
2022-11-20T07:58:54.804Z,99764.84
2022-11-20T07:59:48.814Z,99760.47
2022-11-20T08:00:29.846Z,99763.34
2022-11-20T08:01:14.977Z,99744.16
2022-11-20T08:01:54.813Z,99762.13
2022-11-20T08:02:34.885Z,99770.13
2022-11-20T08:03:18.104Z,99763.63
2022-11-20T08:04:01.912Z,99758.56
2022-11-20T08:04:41.790Z,99767.25
2022-11-20T08:05:21.898Z,99765.66
2022-11-20T08:06:01.816Z,99748.06
2022-11-20T08:06:41.823Z,99744.88
2022-11-20T08:07:21.866Z,99764.09
2022-11-20T08:08:01.920Z,99760.50
2022-11-20T08:08:43.241Z,99746.47
2022-11-20T08:09:23.890Z,99761.94
2022-11-20T08:10:03.775Z,99757.09
2022-11-20T08:10:43.822Z,99751.06
2022-11-20T08:11:43.819Z,99745.50
2022-11-20T08:12:47.369Z,99745.81
2022-11-20T08:13:46.788Z,99755.81
2022-11-20T08:14:28.284Z,99745.72
2022-11-20T08:15:13.111Z,99743.63
2022-11-20T08:15:57.924Z,99746.97
2022-11-20T08:16:37.773Z,99743.25
2022-11-20T08:17:17.862Z,99750.28
2022-11-20T08:18:15.416Z,99744.19
2022-11-20T08:18:58.773Z,99748.66
2022-11-20T08:19:32.917Z,99750.69
2022-11-20T08:20:20.801Z,99750.50
2022-11-20T08:20:54.864Z,99755.19
2022-11-20T08:21:41.795Z,99738.34
2022-11-20T08:22:16.963Z,99755.44
2022-11-20T08:22:57.836Z,99754.19
2022-11-20T08:23:38.943Z,99750.13
2022-11-20T08:24:19.800Z,99749.72
2022-11-20T08:25:00.031Z,99757.53
2022-11-20T08:25:42.831Z,99745.06
2022-11-20T08:26:23.409Z,99745.59
2022-11-20T08:27:08.780Z,99757.22
2022-11-20T08:27:48.860Z,99746.22
2022-11-20T08:28:29.810Z,99751.03